sensor_id;sensor_type;location;lat;lon;timestamp;P1;durP1;ratioP1;P2;durP2;ratioP2
23800;SDS011;12081;48.614;10.226;2023-05-19T00:00:22;4.17;;;2.60;;
23800;SDS011;12081;48.614;10.226;2023-05-19T00:03:07;4.73;;;2.63;;
23800;SDS011;12081;48.614;10.226;2023-05-19T00:05:52;3.40;;;2.47;;
23800;SDS011;12081;48.614;10.226;2023-05-19T00:08:36;6.00;;;2.80;;
23800;SDS011;12081;48.614;10.226;2023-05-19T00:11:21;7.33;;;2.60;;
23800;SDS011;12081;48.614;10.226;2023-05-19T00:14:07;8.00;;;3.00;;
23800;SDS011;12081;48.614;10.226;2023-05-19T00:16:52;8.07;;;3.10;;
23800;SDS011;12081;48.614;10.226;2023-05-19T00:19:38;4.63;;;2.97;;
23800;SDS011;12081;48.614;10.226;2023-05-19T00:22:23;4.40;;;3.03;;
23800;SDS011;12081;48.614;10.226;2023-05-19T00:25:07;6.63;;;3.17;;
23800;SDS011;12081;48.614;10.226;2023-05-19T00:27:52;7.20;;;3.20;;
23800;SDS011;12081;48.614;10.226;2023-05-19T00:30:36;5.23;;;3.07;;
23800;SDS011;12081;48.614;10.226;2023-05-19T00:33:21;5.10;;;3.17;;
23800;SDS011;12081;48.614;10.226;2023-05-19T00:36:06;5.13;;;3.00;;
23800;SDS011;12081;48.614;10.226;2023-05-19T00:38:51;6.77;;;3.27;;
23800;SDS011;12081;48.614;10.226;2023-05-19T00:41:35;6.20;;;2.93;;
23800;SDS011;12081;48.614;10.226;2023-05-19T00:44:19;6.73;;;3.57;;
23800;SDS011;12081;48.614;10.226;2023-05-19T00:47:03;5.33;;;3.10;;
23800;SDS011;12081;48.614;10.226;2023-05-19T00:49:48;4.93;;;2.93;;
23800;SDS011;12081;48.614;10.226;2023-05-19T00:52:32;6.40;;;3.20;;
23800;SDS011;12081;48.614;10.226;2023-05-19T00:55:18;8.30;;;3.40;;
23800;SDS011;12081;48.614;10.226;2023-05-19T00:58:04;7.37;;;3.23;;
23800;SDS011;12081;48.614;10.226;2023-05-19T01:00:49;6.43;;;3.10;;
23800;SDS011;12081;48.614;10.226;2023-05-19T01:03:34;6.30;;;2.97;;
23800;SDS011;12081;48.614;10.226;2023-05-19T01:06:19;6.23;;;3.40;;
23800;SDS011;12081;48.614;10.226;2023-05-19T01:09:04;5.47;;;3.20;;
23800;SDS011;12081;48.614;10.226;2023-05-19T01:11:49;6.47;;;3.17;;
23800;SDS011;12081;48.614;10.226;2023-05-19T01:14:33;6.73;;;2.87;;
23800;SDS011;12081;48.614;10.226;2023-05-19T01:20:21;4.83;;;2.87;;
23800;SDS011;12081;48.614;10.226;2023-05-19T01:26:40;7.13;;;3.70;;
23800;SDS011;12081;48.614;10.226;2023-05-19T01:29:41;8.27;;;3.20;;
23800;SDS011;12081;48.614;10.226;2023-05-19T01:32:32;5.93;;;3.03;;
23800;SDS011;12081;48.614;10.226;2023-05-19T01:35:17;6.43;;;3.30;;
23800;SDS011;12081;48.614;10.226;2023-05-19T01:38:02;7.23;;;3.33;;
23800;SDS011;12081;48.614;10.226;2023-05-19T01:40:48;7.80;;;3.20;;
23800;SDS011;12081;48.614;10.226;2023-05-19T01:43:34;6.77;;;3.27;;
23800;SDS011;12081;48.614;10.226;2023-05-19T01:46:18;7.53;;;3.60;;
23800;SDS011;12081;48.614;10.226;2023-05-19T01:49:04;8.93;;;2.80;;
23800;SDS011;12081;48.614;10.226;2023-05-19T01:51:49;4.73;;;3.27;;
23800;SDS011;12081;48.614;10.226;2023-05-19T01:54:33;8.23;;;3.13;;
23800;SDS011;12081;48.614;10.226;2023-05-19T01:57:20;5.50;;;2.90;;
23800;SDS011;12081;48.614;10.226;2023-05-19T02:07:04;8.23;;;3.57;;
23800;SDS011;12081;48.614;10.226;2023-05-19T02:10:05;5.03;;;3.17;;
23800;SDS011;12081;48.614;10.226;2023-05-19T02:12:53;6.93;;;2.73;;
23800;SDS011;12081;48.614;10.226;2023-05-19T02:15:43;10.30;;;3.80;;
23800;SDS011;12081;48.614;10.226;2023-05-19T02:18:30;6.83;;;3.63;;
23800;SDS011;12081;48.614;10.226;2023-05-19T02:21:15;6.77;;;3.50;;
23800;SDS011;12081;48.614;10.226;2023-05-19T02:23:59;10.23;;;3.20;;
23800;SDS011;12081;48.614;10.226;2023-05-19T02:26:43;10.00;;;3.07;;
23800;SDS011;12081;48.614;10.226;2023-05-19T02:29:28;8.40;;;3.27;;
23800;SDS011;12081;48.614;10.226;2023-05-19T02:35:00;7.07;;;3.27;;
23800;SDS011;12081;48.614;10.226;2023-05-19T02:37:45;5.87;;;3.10;;
23800;SDS011;12081;48.614;10.226;2023-05-19T02:40:29;5.83;;;3.10;;
23800;SDS011;12081;48.614;10.226;2023-05-19T02:43:13;7.20;;;3.27;;
23800;SDS011;12081;48.614;10.226;2023-05-19T02:45:58;6.10;;;3.30;;
23800;SDS011;12081;48.614;10.226;2023-05-19T02:48:42;8.47;;;3.10;;
23800;SDS011;12081;48.614;10.226;2023-05-19T02:51:27;5.90;;;2.93;;
23800;SDS011;12081;48.614;10.226;2023-05-19T02:54:11;7.43;;;2.87;;
23800;SDS011;12081;48.614;10.226;2023-05-19T02:56:56;7.83;;;3.53;;
23800;SDS011;12081;48.614;10.226;2023-05-19T02:59:41;8.90;;;3.03;;
23800;SDS011;12081;48.614;10.226;2023-05-19T03:02:26;6.63;;;3.00;;
23800;SDS011;12081;48.614;10.226;2023-05-19T03:05:10;7.70;;;3.23;;
23800;SDS011;12081;48.614;10.226;2023-05-19T03:07:57;5.97;;;2.43;;
23800;SDS011;12081;48.614;10.226;2023-05-19T03:10:41;9.43;;;3.77;;
23800;SDS011;12081;48.614;10.226;2023-05-19T03:13:26;7.60;;;2.87;;
23800;SDS011;12081;48.614;10.226;2023-05-19T03:16:11;6.37;;;3.00;;
23800;SDS011;12081;48.614;10.226;2023-05-19T03:18:56;6.37;;;3.30;;
23800;SDS011;12081;48.614;10.226;2023-05-19T03:21:42;11.57;;;3.63;;
23800;SDS011;12081;48.614;10.226;2023-05-19T03:24:26;5.30;;;2.90;;
23800;SDS011;12081;48.614;10.226;2023-05-19T03:27:11;7.97;;;2.80;;
23800;SDS011;12081;48.614;10.226;2023-05-19T03:29:56;7.27;;;3.17;;
23800;SDS011;12081;48.614;10.226;2023-05-19T03:32:40;7.53;;;3.17;;
23800;SDS011;12081;48.614;10.226;2023-05-19T03:35:25;7.47;;;3.03;;
23800;SDS011;12081;48.614;10.226;2023-05-19T03:38:10;6.97;;;3.30;;
23800;SDS011;12081;48.614;10.226;2023-05-19T03:40:54;7.30;;;3.43;;
23800;SDS011;12081;48.614;10.226;2023-05-19T03:43:39;10.07;;;2.77;;
23800;SDS011;12081;48.614;10.226;2023-05-19T03:46:24;8.20;;;3.27;;
23800;SDS011;12081;48.614;10.226;2023-05-19T03:49:17;6.23;;;3.20;;
23800;SDS011;12081;48.614;10.226;2023-05-19T03:55:45;10.83;;;3.40;;
23800;SDS011;12081;48.614;10.226;2023-05-19T03:59:06;7.33;;;3.20;;
23800;SDS011;12081;48.614;10.226;2023-05-19T04:02:16;11.87;;;3.43;;
23800;SDS011;12081;48.614;10.226;2023-05-19T04:05:10;5.97;;;3.50;;
23800;SDS011;12081;48.614;10.226;2023-05-19T04:08:23;7.13;;;3.00;;
23800;SDS011;12081;48.614;10.226;2023-05-19T04:11:07;5.13;;;3.00;;
23800;SDS011;12081;48.614;10.226;2023-05-19T04:13:59;8.57;;;3.37;;
23800;SDS011;12081;48.614;10.226;2023-05-19T04:19:47;10.03;;;3.37;;
23800;SDS011;12081;48.614;10.226;2023-05-19T05:34:24;7.60;;;3.60;;
23800;SDS011;12081;48.614;10.226;2023-05-19T05:37:09;7.87;;;3.07;;
23800;SDS011;12081;48.614;10.226;2023-05-19T05:39:53;9.40;;;2.67;;
23800;SDS011;12081;48.614;10.226;2023-05-19T05:42:37;9.93;;;3.00;;
23800;SDS011;12081;48.614;10.226;2023-05-19T05:45:21;6.77;;;3.20;;
23800;SDS011;12081;48.614;10.226;2023-05-19T05:48:06;9.80;;;3.63;;
23800;SDS011;12081;48.614;10.226;2023-05-19T05:50:50;10.80;;;3.23;;
23800;SDS011;12081;48.614;10.226;2023-05-19T05:53:36;9.63;;;3.30;;
23800;SDS011;12081;48.614;10.226;2023-05-19T05:56:25;7.67;;;2.87;;
23800;SDS011;12081;48.614;10.226;2023-05-19T05:59:10;5.03;;;2.70;;
23800;SDS011;12081;48.614;10.226;2023-05-19T06:01:54;7.00;;;3.10;;
23800;SDS011;12081;48.614;10.226;2023-05-19T06:04:38;6.43;;;3.03;;
23800;SDS011;12081;48.614;10.226;2023-05-19T06:07:23;4.30;;;2.50;;
23800;SDS011;12081;48.614;10.226;2023-05-19T06:10:07;5.53;;;2.67;;
23800;SDS011;12081;48.614;10.226;2023-05-19T06:12:53;10.77;;;3.37;;
23800;SDS011;12081;48.614;10.226;2023-05-19T06:15:37;8.43;;;2.83;;
23800;SDS011;12081;48.614;10.226;2023-05-19T06:18:21;5.60;;;2.90;;
23800;SDS011;12081;48.614;10.226;2023-05-19T06:21:05;5.40;;;2.77;;
23800;SDS011;12081;48.614;10.226;2023-05-19T06:23:50;8.60;;;3.30;;
23800;SDS011;12081;48.614;10.226;2023-05-19T06:26:34;8.47;;;3.10;;
23800;SDS011;12081;48.614;10.226;2023-05-19T06:29:18;9.70;;;3.80;;
23800;SDS011;12081;48.614;10.226;2023-05-19T06:32:03;6.87;;;3.33;;
23800;SDS011;12081;48.614;10.226;2023-05-19T06:34:47;7.03;;;3.63;;
23800;SDS011;12081;48.614;10.226;2023-05-19T06:37:36;9.73;;;3.17;;
23800;SDS011;12081;48.614;10.226;2023-05-19T06:40:20;8.57;;;4.00;;
23800;SDS011;12081;48.614;10.226;2023-05-19T06:43:05;7.93;;;3.43;;
23800;SDS011;12081;48.614;10.226;2023-05-19T06:45:50;13.10;;;4.23;;
23800;SDS011;12081;48.614;10.226;2023-05-19T06:48:34;11.00;;;3.40;;
23800;SDS011;12081;48.614;10.226;2023-05-19T06:51:18;10.80;;;3.63;;
23800;SDS011;12081;48.614;10.226;2023-05-19T06:54:05;8.20;;;3.47;;
23800;SDS011;12081;48.614;10.226;2023-05-19T06:56:49;6.90;;;3.67;;
23800;SDS011;12081;48.614;10.226;2023-05-19T06:59:33;13.87;;;3.63;;
23800;SDS011;12081;48.614;10.226;2023-05-19T07:02:17;8.30;;;3.53;;
23800;SDS011;12081;48.614;10.226;2023-05-19T07:05:01;11.17;;;3.50;;
23800;SDS011;12081;48.614;10.226;2023-05-19T07:07:46;11.73;;;3.57;;
23800;SDS011;12081;48.614;10.226;2023-05-19T07:10:30;9.47;;;3.93;;
23800;SDS011;12081;48.614;10.226;2023-05-19T07:13:27;9.13;;;3.97;;
23800;SDS011;12081;48.614;10.226;2023-05-19T07:16:11;9.27;;;4.03;;
23800;SDS011;12081;48.614;10.226;2023-05-19T07:18:55;9.67;;;3.97;;
23800;SDS011;12081;48.614;10.226;2023-05-19T07:21:39;5.90;;;3.13;;
23800;SDS011;12081;48.614;10.226;2023-05-19T07:24:25;5.17;;;3.30;;
23800;SDS011;12081;48.614;10.226;2023-05-19T07:27:10;6.27;;;3.40;;
23800;SDS011;12081;48.614;10.226;2023-05-19T07:29:54;8.63;;;3.60;;
23800;SDS011;12081;48.614;10.226;2023-05-19T07:32:38;7.47;;;3.40;;
23800;SDS011;12081;48.614;10.226;2023-05-19T07:35:22;6.27;;;3.67;;
23800;SDS011;12081;48.614;10.226;2023-05-19T07:38:07;6.27;;;3.73;;
23800;SDS011;12081;48.614;10.226;2023-05-19T07:40:52;7.67;;;3.50;;
23800;SDS011;12081;48.614;10.226;2023-05-19T07:43:36;5.47;;;3.20;;
23800;SDS011;12081;48.614;10.226;2023-05-19T07:46:20;6.37;;;3.30;;
23800;SDS011;12081;48.614;10.226;2023-05-19T07:49:04;7.30;;;3.10;;
23800;SDS011;12081;48.614;10.226;2023-05-19T07:51:49;8.43;;;3.67;;
23800;SDS011;12081;48.614;10.226;2023-05-19T07:54:33;5.70;;;3.60;;
23800;SDS011;12081;48.614;10.226;2023-05-19T07:57:17;8.43;;;3.87;;
23800;SDS011;12081;48.614;10.226;2023-05-19T08:00:03;6.10;;;3.30;;
23800;SDS011;12081;48.614;10.226;2023-05-19T08:02:50;9.23;;;3.77;;
23800;SDS011;12081;48.614;10.226;2023-05-19T08:05:35;6.80;;;3.13;;
23800;SDS011;12081;48.614;10.226;2023-05-19T08:08:20;4.00;;;3.00;;
23800;SDS011;12081;48.614;10.226;2023-05-19T08:11:04;6.67;;;2.97;;
23800;SDS011;12081;48.614;10.226;2023-05-19T08:13:49;8.83;;;3.87;;
23800;SDS011;12081;48.614;10.226;2023-05-19T08:16:33;6.37;;;2.83;;
23800;SDS011;12081;48.614;10.226;2023-05-19T08:19:18;5.27;;;3.00;;
23800;SDS011;12081;48.614;10.226;2023-05-19T08:22:02;6.93;;;3.03;;
23800;SDS011;12081;48.614;10.226;2023-05-19T08:24:46;8.43;;;2.97;;
23800;SDS011;12081;48.614;10.226;2023-05-19T08:27:32;4.83;;;3.37;;
23800;SDS011;12081;48.614;10.226;2023-05-19T08:30:16;8.73;;;3.37;;
23800;SDS011;12081;48.614;10.226;2023-05-19T08:33:01;4.57;;;2.70;;
23800;SDS011;12081;48.614;10.226;2023-05-19T08:35:46;7.73;;;3.10;;
23800;SDS011;12081;48.614;10.226;2023-05-19T08:38:30;5.43;;;2.80;;
23800;SDS011;12081;48.614;10.226;2023-05-19T08:41:14;6.57;;;2.73;;
23800;SDS011;12081;48.614;10.226;2023-05-19T08:43:59;4.87;;;3.03;;
23800;SDS011;12081;48.614;10.226;2023-05-19T08:46:43;5.23;;;2.70;;
23800;SDS011;12081;48.614;10.226;2023-05-19T08:49:27;4.30;;;2.53;;
23800;SDS011;12081;48.614;10.226;2023-05-19T08:52:18;10.13;;;3.17;;
23800;SDS011;12081;48.614;10.226;2023-05-19T08:55:12;9.63;;;3.93;;
23800;SDS011;12081;48.614;10.226;2023-05-19T08:58:04;4.50;;;2.77;;
23800;SDS011;12081;48.614;10.226;2023-05-19T09:00:48;9.57;;;3.90;;
23800;SDS011;12081;48.614;10.226;2023-05-19T09:03:33;6.27;;;3.37;;
23800;SDS011;12081;48.614;10.226;2023-05-19T09:06:21;4.67;;;3.10;;
23800;SDS011;12081;48.614;10.226;2023-05-19T09:09:06;4.73;;;3.37;;
23800;SDS011;12081;48.614;10.226;2023-05-19T09:11:51;7.17;;;3.60;;
23800;SDS011;12081;48.614;10.226;2023-05-19T09:14:35;8.33;;;3.77;;
23800;SDS011;12081;48.614;10.226;2023-05-19T09:17:21;8.63;;;4.10;;
23800;SDS011;12081;48.614;10.226;2023-05-19T09:20:05;5.13;;;3.40;;
23800;SDS011;12081;48.614;10.226;2023-05-19T09:22:53;9.07;;;3.30;;
23800;SDS011;12081;48.614;10.226;2023-05-19T09:26:23;7.23;;;3.70;;
23800;SDS011;12081;48.614;10.226;2023-05-19T09:28:51;6.10;;;4.03;;
23800;SDS011;12081;48.614;10.226;2023-05-19T09:31:47;10.73;;;3.83;;
23800;SDS011;12081;48.614;10.226;2023-05-19T09:34:38;8.63;;;3.60;;
23800;SDS011;12081;48.614;10.226;2023-05-19T09:37:24;7.73;;;3.33;;
23800;SDS011;12081;48.614;10.226;2023-05-19T09:40:14;5.17;;;3.30;;
23800;SDS011;12081;48.614;10.226;2023-05-19T09:42:58;5.00;;;3.60;;
23800;SDS011;12081;48.614;10.226;2023-05-19T09:45:43;7.63;;;3.50;;
23800;SDS011;12081;48.614;10.226;2023-05-19T09:48:27;5.17;;;3.43;;
23800;SDS011;12081;48.614;10.226;2023-05-19T09:51:12;5.27;;;3.30;;
23800;SDS011;12081;48.614;10.226;2023-05-19T09:53:57;5.07;;;3.13;;
23800;SDS011;12081;48.614;10.226;2023-05-19T09:56:42;5.53;;;3.07;;
23800;SDS011;12081;48.614;10.226;2023-05-19T09:59:26;5.93;;;3.47;;
23800;SDS011;12081;48.614;10.226;2023-05-19T10:02:14;4.20;;;3.03;;
23800;SDS011;12081;48.614;10.226;2023-05-19T10:05:01;6.47;;;2.97;;
23800;SDS011;12081;48.614;10.226;2023-05-19T10:07:48;6.20;;;3.43;;
23800;SDS011;12081;48.614;10.226;2023-05-19T10:10:38;8.60;;;3.20;;
23800;SDS011;12081;48.614;10.226;2023-05-19T10:13:22;5.97;;;2.60;;
23800;SDS011;12081;48.614;10.226;2023-05-19T10:16:07;3.90;;;3.37;;
23800;SDS011;12081;48.614;10.226;2023-05-19T10:18:53;5.27;;;2.90;;
23800;SDS011;12081;48.614;10.226;2023-05-19T10:21:40;4.17;;;3.10;;
23800;SDS011;12081;48.614;10.226;2023-05-19T10:24:24;5.67;;;3.20;;
23800;SDS011;12081;48.614;10.226;2023-05-19T10:27:10;5.67;;;3.30;;
23800;SDS011;12081;48.614;10.226;2023-05-19T10:29:58;6.37;;;3.07;;
23800;SDS011;12081;48.614;10.226;2023-05-19T10:32:46;3.83;;;2.90;;
23800;SDS011;12081;48.614;10.226;2023-05-19T10:38:46;4.27;;;3.20;;
23800;SDS011;12081;48.614;10.226;2023-05-19T10:41:42;4.77;;;3.23;;
23800;SDS011;12081;48.614;10.226;2023-05-19T10:47:35;6.47;;;3.53;;
23800;SDS011;12081;48.614;10.226;2023-05-19T10:50:19;8.17;;;3.57;;
23800;SDS011;12081;48.614;10.226;2023-05-19T10:53:04;7.47;;;3.43;;
23800;SDS011;12081;48.614;10.226;2023-05-19T10:55:57;9.57;;;4.67;;
23800;SDS011;12081;48.614;10.226;2023-05-19T10:58:49;8.37;;;3.80;;
23800;SDS011;12081;48.614;10.226;2023-05-19T11:01:34;6.73;;;3.83;;
23800;SDS011;12081;48.614;10.226;2023-05-19T11:04:20;8.50;;;4.23;;
23800;SDS011;12081;48.614;10.226;2023-05-19T11:07:33;6.03;;;3.60;;
23800;SDS011;12081;48.614;10.226;2023-05-19T11:10:21;8.43;;;4.67;;
23800;SDS011;12081;48.614;10.226;2023-05-19T11:13:07;6.67;;;3.57;;
23800;SDS011;12081;48.614;10.226;2023-05-19T11:16:08;8.37;;;3.80;;
23800;SDS011;12081;48.614;10.226;2023-05-19T11:18:53;9.87;;;4.57;;
23800;SDS011;12081;48.614;10.226;2023-05-19T11:21:51;6.97;;;3.67;;
23800;SDS011;12081;48.614;10.226;2023-05-19T11:24:39;9.90;;;4.00;;
23800;SDS011;12081;48.614;10.226;2023-05-19T11:27:33;7.10;;;4.13;;
23800;SDS011;12081;48.614;10.226;2023-05-19T11:30:20;8.20;;;4.23;;
23800;SDS011;12081;48.614;10.226;2023-05-19T11:33:05;9.13;;;4.00;;
23800;SDS011;12081;48.614;10.226;2023-05-19T11:35:50;6.23;;;4.00;;
23800;SDS011;12081;48.614;10.226;2023-05-19T11:38:34;4.60;;;3.20;;
23800;SDS011;12081;48.614;10.226;2023-05-19T11:41:18;7.70;;;3.63;;
23800;SDS011;12081;48.614;10.226;2023-05-19T11:44:02;7.83;;;3.87;;
23800;SDS011;12081;48.614;10.226;2023-05-19T11:46:46;5.30;;;3.33;;
23800;SDS011;12081;48.614;10.226;2023-05-19T11:49:30;6.80;;;3.93;;
23800;SDS011;12081;48.614;10.226;2023-05-19T11:52:14;4.40;;;3.47;;
23800;SDS011;12081;48.614;10.226;2023-05-19T11:55:01;5.47;;;3.53;;
23800;SDS011;12081;48.614;10.226;2023-05-19T12:00:43;6.07;;;4.10;;
23800;SDS011;12081;48.614;10.226;2023-05-19T12:03:30;7.53;;;3.77;;
23800;SDS011;12081;48.614;10.226;2023-05-19T12:06:15;6.60;;;3.57;;
23800;SDS011;12081;48.614;10.226;2023-05-19T12:09:00;5.97;;;3.53;;
23800;SDS011;12081;48.614;10.226;2023-05-19T12:11:44;9.57;;;3.47;;
23800;SDS011;12081;48.614;10.226;2023-05-19T12:14:29;5.10;;;3.43;;
23800;SDS011;12081;48.614;10.226;2023-05-19T12:17:14;6.00;;;3.30;;
23800;SDS011;12081;48.614;10.226;2023-05-19T12:20:00;6.40;;;3.30;;
23800;SDS011;12081;48.614;10.226;2023-05-19T12:22:48;5.23;;;3.13;;
23800;SDS011;12081;48.614;10.226;2023-05-19T12:25:34;9.13;;;3.90;;
23800;SDS011;12081;48.614;10.226;2023-05-19T12:28:18;8.63;;;4.10;;
23800;SDS011;12081;48.614;10.226;2023-05-19T12:31:03;5.40;;;3.47;;
23800;SDS011;12081;48.614;10.226;2023-05-19T12:33:47;6.60;;;3.23;;
23800;SDS011;12081;48.614;10.226;2023-05-19T12:36:35;4.73;;;3.20;;
23800;SDS011;12081;48.614;10.226;2023-05-19T12:39:19;6.87;;;3.17;;
23800;SDS011;12081;48.614;10.226;2023-05-19T12:42:07;7.60;;;3.43;;
23800;SDS011;12081;48.614;10.226;2023-05-19T12:44:53;6.03;;;3.67;;
23800;SDS011;12081;48.614;10.226;2023-05-19T12:47:37;4.50;;;3.60;;
23800;SDS011;12081;48.614;10.226;2023-05-19T12:50:21;10.10;;;3.57;;
23800;SDS011;12081;48.614;10.226;2023-05-19T12:53:12;4.43;;;3.37;;
23800;SDS011;12081;48.614;10.226;2023-05-19T12:55:57;5.67;;;3.20;;
23800;SDS011;12081;48.614;10.226;2023-05-19T12:58:41;5.63;;;3.70;;
23800;SDS011;12081;48.614;10.226;2023-05-19T13:01:27;4.60;;;3.53;;
23800;SDS011;12081;48.614;10.226;2023-05-19T13:04:12;7.67;;;3.77;;
23800;SDS011;12081;48.614;10.226;2023-05-19T13:06:56;8.70;;;3.67;;
23800;SDS011;12081;48.614;10.226;2023-05-19T13:09:40;8.03;;;3.50;;
23800;SDS011;12081;48.614;10.226;2023-05-19T13:12:24;10.23;;;3.07;;
23800;SDS011;12081;48.614;10.226;2023-05-19T13:15:09;9.67;;;3.57;;
23800;SDS011;12081;48.614;10.226;2023-05-19T13:18:05;6.53;;;3.40;;
23800;SDS011;12081;48.614;10.226;2023-05-19T13:20:52;6.20;;;3.73;;
23800;SDS011;12081;48.614;10.226;2023-05-19T13:23:37;10.03;;;3.63;;
23800;SDS011;12081;48.614;10.226;2023-05-19T13:26:21;9.07;;;3.90;;
23800;SDS011;12081;48.614;10.226;2023-05-19T13:29:06;5.97;;;3.10;;
23800;SDS011;12081;48.614;10.226;2023-05-19T13:31:50;7.30;;;3.87;;
23800;SDS011;12081;48.614;10.226;2023-05-19T13:34:34;6.87;;;3.43;;
23800;SDS011;12081;48.614;10.226;2023-05-19T13:37:18;4.27;;;3.03;;
23800;SDS011;12081;48.614;10.226;2023-05-19T13:40:03;4.87;;;2.70;;
23800;SDS011;12081;48.614;10.226;2023-05-19T13:42:49;7.27;;;2.40;;
23800;SDS011;12081;48.614;10.226;2023-05-19T13:45:33;7.10;;;3.20;;
23800;SDS011;12081;48.614;10.226;2023-05-19T13:48:17;9.83;;;3.50;;
23800;SDS011;12081;48.614;10.226;2023-05-19T13:51:01;6.07;;;2.60;;
23800;SDS011;12081;48.614;10.226;2023-05-19T13:53:45;5.70;;;3.43;;
23800;SDS011;12081;48.614;10.226;2023-05-19T13:56:30;5.77;;;3.00;;
23800;SDS011;12081;48.614;10.226;2023-05-19T13:59:14;9.30;;;3.00;;
23800;SDS011;12081;48.614;10.226;2023-05-19T14:02:01;5.30;;;2.80;;
23800;SDS011;12081;48.614;10.226;2023-05-19T14:04:46;4.60;;;3.00;;
23800;SDS011;12081;48.614;10.226;2023-05-19T14:07:31;7.00;;;2.97;;
23800;SDS011;12081;48.614;10.226;2023-05-19T14:10:17;6.53;;;3.17;;
23800;SDS011;12081;48.614;10.226;2023-05-19T14:13:00;6.60;;;2.80;;
23800;SDS011;12081;48.614;10.226;2023-05-19T14:15:44;6.13;;;3.20;;
23800;SDS011;12081;48.614;10.226;2023-05-19T14:18:28;6.60;;;2.83;;
23800;SDS011;12081;48.614;10.226;2023-05-19T14:21:14;7.37;;;3.23;;
23800;SDS011;12081;48.614;10.226;2023-05-19T14:23:58;4.47;;;2.83;;
23800;SDS011;12081;48.614;10.226;2023-05-19T14:26:43;6.83;;;2.77;;
23800;SDS011;12081;48.614;10.226;2023-05-19T14:29:28;5.10;;;2.87;;
23800;SDS011;12081;48.614;10.226;2023-05-19T14:32:13;6.27;;;2.47;;
23800;SDS011;12081;48.614;10.226;2023-05-19T14:34:57;4.53;;;2.70;;
23800;SDS011;12081;48.614;10.226;2023-05-19T14:37:42;9.40;;;3.47;;
23800;SDS011;12081;48.614;10.226;2023-05-19T14:40:26;8.23;;;3.10;;
23800;SDS011;12081;48.614;10.226;2023-05-19T14:43:10;5.10;;;2.63;;
23800;SDS011;12081;48.614;10.226;2023-05-19T14:45:55;6.13;;;3.03;;
23800;SDS011;12081;48.614;10.226;2023-05-19T14:48:39;6.60;;;3.20;;
23800;SDS011;12081;48.614;10.226;2023-05-19T14:51:23;5.87;;;3.10;;
23800;SDS011;12081;48.614;10.226;2023-05-19T14:54:07;7.03;;;3.17;;
23800;SDS011;12081;48.614;10.226;2023-05-19T14:56:51;4.67;;;3.10;;
23800;SDS011;12081;48.614;10.226;2023-05-19T14:59:36;7.70;;;3.27;;
23800;SDS011;12081;48.614;10.226;2023-05-19T15:02:21;5.67;;;2.83;;
23800;SDS011;12081;48.614;10.226;2023-05-19T15:05:05;7.97;;;2.80;;
23800;SDS011;12081;48.614;10.226;2023-05-19T15:07:49;5.77;;;3.10;;
23800;SDS011;12081;48.614;10.226;2023-05-19T15:10:34;5.67;;;2.87;;
23800;SDS011;12081;48.614;10.226;2023-05-19T15:13:18;4.40;;;2.90;;
23800;SDS011;12081;48.614;10.226;2023-05-19T15:16:04;5.50;;;2.90;;
23800;SDS011;12081;48.614;10.226;2023-05-19T15:18:52;5.70;;;3.10;;
23800;SDS011;12081;48.614;10.226;2023-05-19T15:21:37;4.40;;;2.60;;
23800;SDS011;12081;48.614;10.226;2023-05-19T15:24:22;5.90;;;3.00;;
23800;SDS011;12081;48.614;10.226;2023-05-19T15:27:07;3.63;;;2.50;;
23800;SDS011;12081;48.614;10.226;2023-05-19T15:29:51;3.97;;;2.50;;
23800;SDS011;12081;48.614;10.226;2023-05-19T15:32:35;4.33;;;2.60;;
23800;SDS011;12081;48.614;10.226;2023-05-19T15:35:19;6.77;;;3.10;;
23800;SDS011;12081;48.614;10.226;2023-05-19T15:38:03;5.17;;;3.07;;
23800;SDS011;12081;48.614;10.226;2023-05-19T15:40:48;5.33;;;2.77;;
23800;SDS011;12081;48.614;10.226;2023-05-19T15:43:32;5.53;;;3.10;;
23800;SDS011;12081;48.614;10.226;2023-05-19T15:46:17;6.00;;;2.80;;
23800;SDS011;12081;48.614;10.226;2023-05-19T15:49:02;6.33;;;3.27;;
23800;SDS011;12081;48.614;10.226;2023-05-19T15:51:46;3.97;;;2.43;;
23800;SDS011;12081;48.614;10.226;2023-05-19T15:54:30;5.20;;;2.70;;
23800;SDS011;12081;48.614;10.226;2023-05-19T15:57:14;5.57;;;2.57;;
23800;SDS011;12081;48.614;10.226;2023-05-19T15:59:58;5.83;;;2.60;;
23800;SDS011;12081;48.614;10.226;2023-05-19T16:02:43;4.90;;;2.67;;
23800;SDS011;12081;48.614;10.226;2023-05-19T16:05:27;5.07;;;2.30;;
23800;SDS011;12081;48.614;10.226;2023-05-19T16:08:11;8.07;;;2.77;;
23800;SDS011;12081;48.614;10.226;2023-05-19T16:10:55;3.63;;;2.40;;
23800;SDS011;12081;48.614;10.226;2023-05-19T16:13:39;4.53;;;2.40;;
23800;SDS011;12081;48.614;10.226;2023-05-19T16:16:23;6.37;;;2.63;;
23800;SDS011;12081;48.614;10.226;2023-05-19T16:19:07;2.60;;;2.10;;
23800;SDS011;12081;48.614;10.226;2023-05-19T16:21:52;4.83;;;2.23;;
23800;SDS011;12081;48.614;10.226;2023-05-19T16:24:36;10.90;;;2.60;;
23800;SDS011;12081;48.614;10.226;2023-05-19T16:27:20;4.37;;;2.50;;
23800;SDS011;12081;48.614;10.226;2023-05-19T16:30:05;6.33;;;2.17;;
23800;SDS011;12081;48.614;10.226;2023-05-19T16:32:50;5.97;;;2.80;;
23800;SDS011;12081;48.614;10.226;2023-05-19T16:35:36;6.83;;;2.63;;
23800;SDS011;12081;48.614;10.226;2023-05-19T16:38:21;5.57;;;3.27;;
23800;SDS011;12081;48.614;10.226;2023-05-19T16:41:05;4.77;;;3.57;;
23800;SDS011;12081;48.614;10.226;2023-05-19T16:43:53;4.93;;;3.00;;
23800;SDS011;12081;48.614;10.226;2023-05-19T16:46:37;4.53;;;2.70;;
23800;SDS011;12081;48.614;10.226;2023-05-19T16:49:21;4.87;;;2.40;;
23800;SDS011;12081;48.614;10.226;2023-05-19T16:52:06;4.57;;;2.20;;
23800;SDS011;12081;48.614;10.226;2023-05-19T16:54:50;5.73;;;2.43;;
23800;SDS011;12081;48.614;10.226;2023-05-19T16:57:34;4.00;;;2.37;;
23800;SDS011;12081;48.614;10.226;2023-05-19T17:00:18;3.27;;;2.20;;
23800;SDS011;12081;48.614;10.226;2023-05-19T17:03:03;5.00;;;3.07;;
23800;SDS011;12081;48.614;10.226;2023-05-19T17:05:47;4.20;;;2.73;;
23800;SDS011;12081;48.614;10.226;2023-05-19T17:08:31;4.87;;;3.00;;
23800;SDS011;12081;48.614;10.226;2023-05-19T17:11:15;4.27;;;2.53;;
23800;SDS011;12081;48.614;10.226;2023-05-19T17:13:59;3.53;;;2.43;;
23800;SDS011;12081;48.614;10.226;2023-05-19T17:16:46;5.50;;;2.47;;
23800;SDS011;12081;48.614;10.226;2023-05-19T17:19:31;3.70;;;2.17;;
23800;SDS011;12081;48.614;10.226;2023-05-19T17:22:15;6.27;;;3.10;;
23800;SDS011;12081;48.614;10.226;2023-05-19T17:25:00;4.03;;;2.40;;
23800;SDS011;12081;48.614;10.226;2023-05-19T17:27:44;5.03;;;2.63;;
23800;SDS011;12081;48.614;10.226;2023-05-19T17:30:29;5.43;;;2.50;;
23800;SDS011;12081;48.614;10.226;2023-05-19T17:33:13;9.73;;;2.67;;
23800;SDS011;12081;48.614;10.226;2023-05-19T17:36:00;4.30;;;2.63;;
23800;SDS011;12081;48.614;10.226;2023-05-19T17:38:46;5.10;;;2.20;;
23800;SDS011;12081;48.614;10.226;2023-05-19T17:41:30;3.73;;;2.30;;
23800;SDS011;12081;48.614;10.226;2023-05-19T17:44:14;4.70;;;2.47;;
23800;SDS011;12081;48.614;10.226;2023-05-19T17:46:58;5.83;;;2.80;;
23800;SDS011;12081;48.614;10.226;2023-05-19T17:49:44;4.80;;;2.67;;
23800;SDS011;12081;48.614;10.226;2023-05-19T17:52:29;3.83;;;2.43;;
23800;SDS011;12081;48.614;10.226;2023-05-19T17:55:13;4.00;;;2.83;;
23800;SDS011;12081;48.614;10.226;2023-05-19T17:57:57;4.03;;;2.60;;
23800;SDS011;12081;48.614;10.226;2023-05-19T18:00:42;5.37;;;2.80;;
23800;SDS011;12081;48.614;10.226;2023-05-19T18:03:27;5.73;;;2.70;;
23800;SDS011;12081;48.614;10.226;2023-05-19T18:06:11;5.10;;;2.70;;